»·PEaware :: N257AT KCRQ-KSBP

N257AT :: KCRQ-KSBP

FLIGHT INFORMATION

Flight Status: Arrived
Operator: Privately registered:
United States
More flights under this callsign
Pilot: Kyle A. (14988)
Aircraft: PIPER PA-44 SEMINOLE
(PA44)
More flights by this aircraft type
Origin: KCRQ McClellan-Palomar
United States
Destination: KSBP San Luis Co Regl
United States
More flights between these airports :: More routes between these airports
Route: +OCN V23 LAX V299 VTU DEANO GOLET MQO
File this flight plan on PilotEdge
Remarks:
Altitude:
(Current/Filed)
6,000ft
Speed:
(Current/Filed)
140kts
Departed: 06-Feb-18 11:41 AM
Arrived: 06-Feb-18 01:17 PM
Distance/Time
Traveled:
209nm/1:36
Distance/Time
To Go:
Arrived

Flight Plot

Page will automatically refresh every two minutes.

Flight plan parsing failed; only flown route is shown


Map Options




Map Legend


Flown Route
Filed Route
Departure Airport
Arrival Airport
Navaid (VOR, NDB)
Fix

Horizontal Profiles

Position Reports

Time Latitude Longitude Heading Altitude Ground
Speed
06-Feb-18 11:34 33.127242 -117.274465 251 297ft 0kts
06-Feb-18 11:35 33.127242 -117.274465 251 297ft 0kts
06-Feb-18 11:36 33.127242 -117.274465 251 297ft 0kts
06-Feb-18 11:37 33.127242 -117.274465 251 297ft 0kts
06-Feb-18 11:38 33.127242 -117.274465 251 297ft 0kts
06-Feb-18 11:39 33.127242 -117.274465 251 297ft 0kts
06-Feb-18 11:40 33.127242 -117.274465 251 297ft 0kts
06-Feb-18 11:41 33.127242 -117.274465 251 297ft 0kts
06-Feb-18 11:42 33.127230 -117.274502 249 297ft 2kts
06-Feb-18 11:43 33.127501 -117.275132 346 297ft 3kts
06-Feb-18 11:44 33.128368 -117.274260 79 297ft 11kts
06-Feb-18 11:45 33.128609 -117.272960 53 297ft 0kts
06-Feb-18 11:46 33.128613 -117.272953 52 297ft 0kts
06-Feb-18 11:47 33.127940 -117.282913 263 643ft 90kts
06-Feb-18 11:48 33.124157 -117.320647 261 1258ft 131kts
06-Feb-18 11:49 33.118937 -117.362103 261 2136ft 120kts
06-Feb-18 11:50 33.113483 -117.401957 261 2941ft 132kts
06-Feb-18 11:51 33.106766 -117.447838 261 2997ft 141kts
06-Feb-18 11:52 33.121699 -117.476581 25 3119ft 132kts
06-Feb-18 11:53 33.152707 -117.457844 21 4115ft 120kts
06-Feb-18 11:54 33.183405 -117.443286 18 5111ft 120kts
06-Feb-18 11:55 33.214726 -117.429615 17 6004ft 127kts
06-Feb-18 11:56 33.249069 -117.430588 319 6007ft 140kts
06-Feb-18 11:57 33.277569 -117.462374 316 6007ft 140kts
06-Feb-18 11:58 33.305427 -117.494610 315 6008ft 140kts
06-Feb-18 11:59 33.333320 -117.527146 315 6007ft 139kts
06-Feb-18 12:00 33.360801 -117.559273 314 6007ft 138kts
06-Feb-18 12:01 33.388166 -117.591309 314 6007ft 138kts
06-Feb-18 12:02 33.407892 -117.614441 314 6007ft 138kts
06-Feb-18 12:03 33.434449 -117.645614 314 6007ft 138kts
06-Feb-18 12:04 33.461446 -117.677321 315 6000ft 139kts
06-Feb-18 12:05 33.478306 -117.697122 315 5999ft 139kts
06-Feb-18 12:06 33.493324 -117.714781 315 5999ft 139kts
06-Feb-18 12:07 33.520996 -117.747349 316 5999ft 140kts
06-Feb-18 12:08 33.542113 -117.772224 316 5999ft 140kts
06-Feb-18 12:09 33.569996 -117.805073 316 5999ft 141kts
06-Feb-18 12:10 33.597897 -117.837973 316 5999ft 141kts
06-Feb-18 12:11 33.625911 -117.871065 317 5999ft 142kts
06-Feb-18 12:12 33.652960 -117.905382 303 5999ft 144kts
06-Feb-18 12:13 33.674115 -117.946377 305 5999ft 145kts
06-Feb-18 12:14 33.695925 -117.987645 305 5999ft 147kts
06-Feb-18 12:15 33.717989 -118.029204 305 5999ft 149kts
06-Feb-18 12:16 33.740454 -118.071521 305 5999ft 151kts
06-Feb-18 12:17 33.763092 -118.114220 305 5999ft 152kts
06-Feb-18 12:18 33.785833 -118.157137 305 5998ft 153kts
06-Feb-18 12:19 33.806355 -118.195622 298 5999ft 148kts
06-Feb-18 12:20 33.828045 -118.236983 304 5997ft 148kts
06-Feb-18 12:21 33.850479 -118.279600 305 6002ft 153kts
06-Feb-18 12:22 33.873267 -118.322711 306 6005ft 152kts
06-Feb-18 12:23 33.895752 -118.365362 306 6005ft 150kts
06-Feb-18 12:24 33.917958 -118.407555 305 6004ft 148kts
06-Feb-18 12:25 33.937081 -118.451115 294 6002ft 147kts
06-Feb-18 12:26 33.951650 -118.496789 294 6000ft 145kts
06-Feb-18 12:27 33.966105 -118.542220 293 6000ft 147kts
06-Feb-18 12:28 33.981110 -118.589488 293 5998ft 153kts
06-Feb-18 12:29 33.996320 -118.637487 293 5999ft 153kts
06-Feb-18 12:30 34.011177 -118.684419 292 6001ft 153kts
06-Feb-18 12:32 34.026357 -118.732442 292 6002ft 153kts
06-Feb-18 12:33 34.042192 -118.780303 292 6004ft 153kts
06-Feb-18 12:34 34.055966 -118.828803 290 6006ft 153kts
06-Feb-18 12:35 34.069178 -118.877791 289 6007ft 153kts
06-Feb-18 12:36 34.082294 -118.926979 289 6003ft 154kts
06-Feb-18 12:37 34.095287 -118.975878 289 5998ft 153kts
06-Feb-18 12:38 34.108133 -119.024320 289 5999ft 154kts
06-Feb-18 12:39 34.125222 -119.068340 304 5999ft 153kts
06-Feb-18 12:40 34.148952 -119.111075 305 5997ft 153kts
06-Feb-18 12:41 34.172453 -119.153725 305 5995ft 153kts
06-Feb-18 12:42 34.196000 -119.196593 305 5994ft 153kts
06-Feb-18 12:43 34.219482 -119.239412 305 5992ft 153kts
06-Feb-18 12:44 34.243112 -119.282277 305 5990ft 153kts
06-Feb-18 12:45 34.266632 -119.325160 305 5990ft 153kts
06-Feb-18 12:46 34.290068 -119.368032 305 5991ft 153kts
06-Feb-18 12:47 34.313469 -119.411084 300 5990ft 153kts
06-Feb-18 12:48 34.312779 -119.462941 267 5993ft 156kts
06-Feb-18 12:49 34.308863 -119.515362 266 5994ft 156kts
06-Feb-18 12:50 34.304776 -119.567596 266 5995ft 156kts
06-Feb-18 12:51 34.309816 -119.616438 317 5997ft 152kts
06-Feb-18 12:52 34.339999 -119.651274 316 5997ft 152kts
06-Feb-18 12:53 34.370215 -119.687188 316 5999ft 152kts
06-Feb-18 12:54 34.400296 -119.723232 316 5999ft 152kts
06-Feb-18 12:55 34.430321 -119.759295 316 5999ft 152kts
06-Feb-18 12:56 34.460394 -119.795459 316 5999ft 152kts
06-Feb-18 12:57 34.490389 -119.831568 315 5998ft 151kts
06-Feb-18 12:58 34.519793 -119.867002 315 6005ft 150kts
06-Feb-18 12:59 34.545915 -119.898429 315 6004ft 150kts
06-Feb-18 13:00 34.575678 -119.933780 314 6002ft 150kts
06-Feb-18 13:01 34.605331 -119.969523 313 6000ft 150kts
06-Feb-18 13:02 34.634991 -120.005404 313 5999ft 151kts
06-Feb-18 13:03 34.664613 -120.041365 314 5990ft 150kts
06-Feb-18 13:04 34.694160 -120.077164 314 5989ft 149kts
06-Feb-18 13:05 34.723712 -120.112750 314 5989ft 149kts
06-Feb-18 13:06 34.753282 -120.148588 314 5998ft 150kts
06-Feb-18 13:07 34.782720 -120.184390 314 5998ft 150kts
06-Feb-18 13:08 34.812247 -120.220358 314 5999ft 151kts
06-Feb-18 13:09 34.842022 -120.256664 315 5998ft 151kts
06-Feb-18 13:10 34.871732 -120.292794 315 5998ft 150kts
06-Feb-18 13:11 34.901267 -120.328797 315 5998ft 150kts
06-Feb-18 13:12 34.930777 -120.364610 315 5997ft 149kts
06-Feb-18 13:13 34.960129 -120.400509 315 5997ft 149kts
06-Feb-18 13:14 34.989964 -120.437044 315 5555ft 154kts
06-Feb-18 13:15 35.019900 -120.473747 315 4841ft 150kts
06-Feb-18 13:16 35.049204 -120.509726 315 4127ft 150kts
06-Feb-18 13:17 35.077153 -120.544035 316 4006ft 137kts
06-Feb-18 13:18 35.104545 -120.576448 334 3998ft 139kts
06-Feb-18 13:18 35.134521 -120.577528 349 3807ft 142kts
06-Feb-18 13:20 35.175432 -120.587491 349 2313ft 109kts
06-Feb-18 13:21 35.204553 -120.595401 335 1207ft 91kts
06-Feb-18 13:22 35.222745 -120.615172 305 606ft 85kts
06-Feb-18 13:23 35.235114 -120.636947 306 184ft 52kts
06-Feb-18 13:23 35.238038 -120.639841 1 184ft 10kts
06-Feb-18 13:24 35.238374 -120.640110 305 184ft 0kts
06-Feb-18 13:26 35.238374 -120.640110 305 184ft 0kts
06-Feb-18 13:27 35.238374 -120.640110 305 184ft 0kts
06-Feb-18 13:27 35.238374 -120.640110 305 184ft 0kts

Navigation Log

Ident Type
Flight plan parsing failed, navigation log unavailable